createdAt,value
2023-01-07T00:01:23.497Z,101541.53
2023-01-07T00:03:52.233Z,101532.44
2023-01-07T00:06:22.124Z,101537.25
2023-01-07T00:08:51.689Z,101530.16
2023-01-07T00:11:21.037Z,101524.03
2023-01-07T00:13:50.437Z,101526.34
2023-01-07T00:16:21.300Z,101534.91
2023-01-07T00:18:48.532Z,101526.66
2023-01-07T00:21:18.229Z,101523.34
2023-01-07T00:23:47.331Z,101521.03
2023-01-07T00:26:19.017Z,101517.53
2023-01-07T00:28:48.621Z,101523.00
2023-01-07T00:31:20.174Z,101511.44
2023-01-07T00:34:08.881Z,101502.84
2023-01-07T00:36:41.695Z,101506.50
2023-01-07T00:39:14.365Z,101493.94
2023-01-07T00:42:02.356Z,101504.16
2023-01-07T00:44:29.662Z,101500.53
2023-01-07T00:46:58.724Z,101507.59
2023-01-07T00:49:26.065Z,101499.59
2023-01-07T00:51:53.018Z,101500.41
2023-01-07T00:54:19.923Z,101504.81
2023-01-07T00:56:46.789Z,101512.25
2023-01-07T00:59:13.774Z,101501.97
2023-01-07T01:01:40.834Z,101503.59
2023-01-07T01:04:09.206Z,101502.41
2023-01-07T01:06:36.102Z,101492.66
2023-01-07T01:09:03.081Z,101496.59
2023-01-07T01:11:30.011Z,101488.97
2023-01-07T01:13:56.973Z,101480.50
2023-01-07T01:16:23.928Z,101470.41
2023-01-07T01:18:50.912Z,101476.69
2023-01-07T01:21:19.303Z,101463.94
2023-01-07T01:23:46.561Z,101472.81
2023-01-07T01:26:16.704Z,101461.03
2023-01-07T01:28:44.958Z,101480.66
2023-01-07T01:31:12.538Z,101475.38
2023-01-07T01:33:39.574Z,101484.13
2023-01-07T01:36:10.563Z,101491.09
2023-01-07T01:38:39.462Z,101489.25
2023-01-07T01:41:07.030Z,101482.13
2023-01-07T01:43:36.693Z,101482.84
2023-01-07T01:46:11.026Z,101479.19
2023-01-07T01:48:45.827Z,101482.50
2023-01-07T01:51:17.249Z,101478.84
2023-01-07T01:53:45.875Z,101481.78
2023-01-07T01:56:17.994Z,101472.13
2023-01-07T01:58:51.580Z,101483.84
2023-01-07T02:01:18.626Z,101478.97
2023-01-07T02:03:47.620Z,101478.44
2023-01-07T02:06:30.957Z,101474.81
2023-01-07T02:08:59.238Z,101466.31
2023-01-07T02:11:42.719Z,101473.28
2023-01-07T02:14:35.729Z,101467.97
2023-01-07T02:17:17.437Z,101466.09
2023-01-07T02:20:37.791Z,101456.13
2023-01-07T02:23:45.434Z,101453.28
2023-01-07T02:26:46.071Z,101455.59
2023-01-07T02:29:48.787Z,101447.47
2023-01-07T02:32:36.952Z,101453.22
2023-01-07T02:35:20.339Z,101447.91
2023-01-07T02:38:01.267Z,101449.19
2023-01-07T02:40:37.961Z,101447.22
2023-01-07T02:43:16.780Z,101437.25
2023-01-07T02:45:53.689Z,101437.69
2023-01-07T02:48:24.572Z,101419.34
2023-01-07T02:50:51.439Z,101415.84
2023-01-07T02:53:20.934Z,101412.09
2023-01-07T02:56:14.598Z,101413.56
2023-01-07T02:59:08.847Z,101409.94
2023-01-07T03:02:16.488Z,101415.50
2023-01-07T03:05:21.236Z,101409.72
2023-01-07T03:08:05.533Z,101410.63
2023-01-07T03:10:42.448Z,101413.94
2023-01-07T03:13:17.751Z,101406.44
2023-01-07T03:15:51.289Z,101409.16
2023-01-07T03:18:24.587Z,101405.16
2023-01-07T03:20:59.023Z,101408.81
2023-01-07T03:23:29.803Z,101400.22
2023-01-07T03:26:03.050Z,101403.50
2023-01-07T03:28:36.061Z,101403.88
2023-01-07T03:31:07.781Z,101403.16
2023-01-07T03:33:43.479Z,101399.09
2023-01-07T03:36:16.569Z,101394.44
2023-01-07T03:38:45.949Z,101396.72
2023-01-07T03:41:32.807Z,101391.06
2023-01-07T03:43:59.690Z,101389.41
2023-01-07T03:46:27.073Z,101389.75
2023-01-07T03:48:54.166Z,101394.28
2023-01-07T03:51:22.355Z,101395.53
2023-01-07T03:53:49.273Z,101393.50
2023-01-07T03:56:16.241Z,101394.59
2023-01-07T03:58:43.297Z,101390.38
2023-01-07T04:01:10.261Z,101392.22
2023-01-07T04:03:37.288Z,101386.91
2023-01-07T04:06:04.402Z,101385.25
2023-01-07T04:08:32.710Z,101380.59
2023-01-07T04:10:59.570Z,101384.31
2023-01-07T04:13:26.671Z,101375.81
2023-01-07T04:15:53.602Z,101380.34
2023-01-07T04:18:22.175Z,101380.78
2023-01-07T04:20:49.449Z,101373.91
2023-01-07T04:23:16.647Z,101372.63
2023-01-07T04:25:46.539Z,101370.63
2023-01-07T04:28:13.596Z,101370.63
2023-01-07T04:30:40.909Z,101356.72
2023-01-07T04:33:07.938Z,101360.41
2023-01-07T04:35:34.813Z,101353.44
2023-01-07T04:38:01.776Z,101355.53
2023-01-07T04:40:28.707Z,101355.72
2023-01-07T04:42:56.911Z,101354.44
2023-01-07T04:45:23.963Z,101354.69
2023-01-07T04:47:54.835Z,101355.91
2023-01-07T04:50:21.940Z,101346.88
2023-01-07T04:52:49.017Z,101347.72
2023-01-07T04:55:16.398Z,101348.50
2023-01-07T04:57:43.476Z,101347.31
2023-01-07T05:00:13.217Z,101347.78
2023-01-07T05:02:40.145Z,101349.03
2023-01-07T05:05:08.231Z,101350.69
2023-01-07T05:07:35.283Z,101345.78
2023-01-07T05:10:02.457Z,101346.25
2023-01-07T05:12:29.331Z,101347.50
2023-01-07T05:14:56.227Z,101329.59
2023-01-07T05:17:24.447Z,101333.41
2023-01-07T05:19:51.294Z,101333.16
2023-01-07T05:22:18.193Z,101336.38
2023-01-07T05:24:45.215Z,101327.69
2023-01-07T05:27:12.233Z,101331.97
2023-01-07T05:29:39.145Z,101333.97
2023-01-07T05:32:06.269Z,101327.44
2023-01-07T05:34:34.489Z,101330.91
2023-01-07T05:37:01.370Z,101329.06
2023-01-07T05:39:28.266Z,101332.38
2023-01-07T05:41:55.474Z,101331.13
2023-01-07T05:44:22.423Z,101336.25
2023-01-07T05:46:49.285Z,101332.25
2023-01-07T05:49:17.180Z,101338.16
2023-01-07T05:51:45.477Z,101333.88
2023-01-07T05:54:12.410Z,101336.88
2023-01-07T05:56:39.313Z,101337.16
2023-01-07T05:59:08.729Z,101338.16
2023-01-07T06:01:35.642Z,101334.13
2023-01-07T06:04:02.543Z,101331.72
2023-01-07T06:06:29.419Z,101337.47
2023-01-07T06:08:57.676Z,101333.97
2023-01-07T06:11:24.612Z,101329.72
2023-01-07T06:13:51.567Z,101337.91
2023-01-07T06:16:18.492Z,101340.56
2023-01-07T06:18:45.450Z,101335.06
2023-01-07T06:21:12.449Z,101337.91
2023-01-07T06:23:39.675Z,101336.63
2023-01-07T06:26:07.874Z,101329.94
2023-01-07T06:28:34.819Z,101331.38
2023-01-07T06:31:01.753Z,101330.56
2023-01-07T06:33:28.642Z,101334.03
2023-01-07T06:35:55.632Z,101323.25
2023-01-07T06:38:22.582Z,101330.00
2023-01-07T06:40:49.516Z,101327.75
2023-01-07T06:43:17.741Z,101330.03
2023-01-07T06:45:44.667Z,101327.75
2023-01-07T06:48:11.542Z,101320.63
2023-01-07T06:50:38.396Z,101326.13
2023-01-07T06:53:06.705Z,101328.16
2023-01-07T06:55:33.766Z,101324.84
2023-01-07T06:58:00.689Z,101325.88
2023-01-07T07:00:29.084Z,101333.84
2023-01-07T07:02:56.134Z,101326.06
2023-01-07T07:05:23.078Z,101326.06
2023-01-07T07:07:49.953Z,101326.47
2023-01-07T07:10:17.367Z,101318.69
2023-01-07T07:12:44.539Z,101319.34
2023-01-07T07:15:12.501Z,101318.31
2023-01-07T07:17:40.759Z,101315.03
2023-01-07T07:20:09.206Z,101316.22
2023-01-07T07:22:36.172Z,101311.94
2023-01-07T07:25:03.312Z,101319.25
2023-01-07T07:27:30.184Z,101319.84
2023-01-07T07:29:57.064Z,101313.72
2023-01-07T07:32:28.430Z,101312.91
2023-01-07T07:34:56.871Z,101312.91
2023-01-07T07:37:25.387Z,101312.72
2023-01-07T07:39:52.970Z,101307.59
2023-01-07T07:42:19.838Z,101310.63
2023-01-07T07:44:46.778Z,101308.81
2023-01-07T07:47:13.706Z,101313.72
2023-01-07T07:49:40.685Z,101314.28
2023-01-07T07:52:08.953Z,101299.75
2023-01-07T07:54:36.047Z,101300.13
2023-01-07T07:57:03.815Z,101295.59
2023-01-07T07:59:30.883Z,101301.66
2023-01-07T08:01:57.857Z,101298.75
2023-01-07T08:04:25.171Z,101297.50
2023-01-07T08:06:52.044Z,101297.06
2023-01-07T08:09:20.985Z,101301.56
2023-01-07T08:11:47.927Z,101294.59
2023-01-07T08:14:14.813Z,101292.78
2023-01-07T08:16:41.705Z,101290.94
2023-01-07T08:19:08.684Z,101292.56
2023-01-07T08:21:35.617Z,101300.16
2023-01-07T08:24:02.933Z,101298.13
2023-01-07T08:26:31.244Z,101297.13
2023-01-07T08:28:58.166Z,101295.09
2023-01-07T08:31:25.196Z,101294.91
2023-01-07T08:33:52.114Z,101292.69
2023-01-07T08:36:23.037Z,101295.59
2023-01-07T08:38:52.157Z,101293.38
2023-01-07T08:41:19.536Z,101296.75
2023-01-07T08:43:48.961Z,101300.28
2023-01-07T08:46:16.582Z,101298.25
2023-01-07T08:48:43.900Z,101300.31
2023-01-07T08:51:12.033Z,101299.00
2023-01-07T08:53:39.991Z,101288.78
2023-01-07T08:56:07.586Z,101294.09
2023-01-07T08:58:34.757Z,101287.13
2023-01-07T09:01:06.283Z,101285.38
2023-01-07T09:03:34.269Z,101290.47
2023-01-07T09:06:03.731Z,101281.25
2023-01-07T09:08:31.922Z,101280.84
2023-01-07T09:10:59.050Z,101283.50
2023-01-07T09:13:25.989Z,101277.16
2023-01-07T09:15:53.123Z,101284.88
2023-01-07T09:18:21.549Z,101279.56
2023-01-07T09:20:48.469Z,101270.59
2023-01-07T09:23:15.434Z,101271.22
2023-01-07T09:25:42.416Z,101269.03
2023-01-07T09:28:09.374Z,101278.41
2023-01-07T09:30:37.340Z,101275.22
2023-01-07T09:33:05.026Z,101268.69
2023-01-07T09:35:33.591Z,101273.22
2023-01-07T09:38:00.568Z,101265.53
2023-01-07T09:40:32.236Z,101265.16
2023-01-07T09:43:08.802Z,101272.13
2023-01-07T09:45:42.552Z,101263.19
2023-01-07T09:48:21.987Z,101258.75
2023-01-07T09:50:58.310Z,101251.81
2023-01-07T09:53:34.797Z,101259.91
2023-01-07T09:56:12.480Z,101251.34
2023-01-07T09:58:44.729Z,101254.19
2023-01-07T10:01:26.974Z,101248.81
2023-01-07T10:04:16.914Z,101250.47
2023-01-07T10:06:59.504Z,101252.06
2023-01-07T10:09:42.323Z,101247.34
2023-01-07T10:12:22.099Z,101246.97
2023-01-07T10:15:10.451Z,101246.25
2023-01-07T10:17:59.653Z,101242.66
2023-01-07T10:20:37.471Z,101234.06
2023-01-07T10:23:12.473Z,101240.13
2023-01-07T10:25:45.585Z,101242.72
2023-01-07T10:28:21.464Z,101236.88
2023-01-07T10:30:53.299Z,101232.47
2023-01-07T10:33:25.233Z,101228.91
2023-01-07T10:36:05.412Z,101227.50
2023-01-07T10:38:41.799Z,101221.44
2023-01-07T10:41:16.568Z,101219.63
2023-01-07T10:44:07.326Z,101209.50
2023-01-07T10:46:53.986Z,101201.63
2023-01-07T10:49:44.752Z,101203.25
2023-01-07T10:52:31.733Z,101197.19
2023-01-07T10:55:22.769Z,101199.22
2023-01-07T10:57:50.003Z,101189.63
2023-01-07T11:00:19.112Z,101189.22
2023-01-07T11:02:54.403Z,101183.31
2023-01-07T11:05:24.877Z,101179.66
2023-01-07T11:07:59.564Z,101171.72
2023-01-07T11:10:36.311Z,101167.63
2023-01-07T11:13:13.928Z,101167.41
2023-01-07T11:15:45.014Z,101163.75
2023-01-07T11:18:21.411Z,101153.28
2023-01-07T11:20:51.252Z,101149.84
2023-01-07T11:23:29.229Z,101153.50
2023-01-07T11:26:17.954Z,101149.78
2023-01-07T11:28:53.282Z,101142.66
2023-01-07T11:31:22.752Z,101137.72
2023-01-07T11:34:04.149Z,101133.03
2023-01-07T11:36:42.201Z,101132.22
2023-01-07T11:39:12.262Z,101128.56
2023-01-07T11:41:53.622Z,101120.78
2023-01-07T11:44:20.812Z,101123.84
2023-01-07T11:46:48.328Z,101111.41
2023-01-07T11:49:26.534Z,101109.72
2023-01-07T11:51:54.161Z,101101.16
2023-01-07T11:54:24.721Z,101102.38
2023-01-07T11:56:55.236Z,101093.19
2023-01-07T11:59:30.373Z,101101.53
2023-01-07T12:01:59.670Z,101096.66
2023-01-07T12:04:29.959Z,101092.78
2023-01-07T12:07:01.056Z,101085.44
2023-01-07T12:09:38.207Z,101084.81
2023-01-07T12:12:31.471Z,101080.69
2023-01-07T12:15:02.250Z,101071.34
2023-01-07T12:17:32.904Z,101063.16
2023-01-07T12:20:36.953Z,101054.59
2023-01-07T12:23:20.921Z,101055.81
2023-01-07T12:26:01.799Z,101053.16
2023-01-07T12:28:53.659Z,101041.75
2023-01-07T12:31:39.016Z,101035.00
2023-01-07T12:34:19.653Z,101039.53
2023-01-07T12:37:00.581Z,101041.16
2023-01-07T12:39:35.249Z,101029.53
2023-01-07T12:42:10.137Z,101024.22
2023-01-07T12:44:47.461Z,101018.28
2023-01-07T12:47:32.505Z,101013.38
2023-01-07T12:50:09.590Z,101011.38
2023-01-07T12:52:45.926Z,100994.59
2023-01-07T12:55:20.853Z,100994.41
2023-01-07T12:58:03.337Z,100987.66
2023-01-07T13:00:42.275Z,100988.66
2023-01-07T13:03:29.216Z,100986.41
2023-01-07T13:06:04.591Z,100988.03
2023-01-07T13:08:43.295Z,100976.63
2023-01-07T13:11:41.608Z,100979.88
2023-01-07T13:14:22.356Z,100979.06
2023-01-07T13:16:51.236Z,100977.84
2023-01-07T13:19:18.234Z,100981.31
2023-01-07T13:21:48.208Z,100970.47
2023-01-07T13:24:55.883Z,100966.38
2023-01-07T13:27:34.537Z,100962.09
2023-01-07T13:30:19.928Z,100960.25
2023-01-07T13:33:11.782Z,100962.09
2023-01-07T13:36:05.139Z,100957.00
2023-01-07T13:39:01.438Z,100945.97
2023-01-07T13:41:49.504Z,100936.56
2023-01-07T13:45:06.100Z,100942.28
2023-01-07T13:47:44.778Z,100935.72
2023-01-07T13:50:23.640Z,100934.91
2023-01-07T13:53:03.374Z,100935.72
2023-01-07T13:55:40.498Z,100932.47
2023-01-07T13:58:44.781Z,100927.94
2023-01-07T14:01:14.212Z,100918.31
2023-01-07T14:03:49.429Z,100916.31
2023-01-07T14:06:40.019Z,100917.72
2023-01-07T14:09:27.364Z,100909.78
2023-01-07T14:12:52.919Z,100908.34
2023-01-07T14:15:53.791Z,100896.53
2023-01-07T14:18:51.929Z,100893.66
2023-01-07T14:21:44.496Z,100892.88
2023-01-07T14:24:55.391Z,100891.66
2023-01-07T14:28:10.634Z,100887.16
2023-01-07T14:30:46.441Z,100881.03
2023-01-07T14:33:21.477Z,100874.09
2023-01-07T14:35:58.590Z,100857.97
2023-01-07T14:39:03.661Z,100865.13
2023-01-07T14:41:30.629Z,100865.75
2023-01-07T14:44:18.998Z,100854.50
2023-01-07T14:46:51.579Z,100856.56
2023-01-07T14:49:56.946Z,100846.75
2023-01-07T14:53:00.019Z,100844.72
2023-01-07T14:56:01.906Z,100843.47
2023-01-07T14:58:55.602Z,100845.53
2023-01-07T15:01:51.822Z,100841.19
2023-01-07T15:05:00.855Z,100840.81
2023-01-07T15:07:33.694Z,100842.63
2023-01-07T15:10:24.052Z,100843.66
2023-01-07T15:13:16.827Z,100843.84
2023-01-07T15:16:03.873Z,100838.56
2023-01-07T15:18:42.434Z,100839.78
2023-01-07T15:21:22.946Z,100831.19
2023-01-07T15:24:00.912Z,100821.00
2023-01-07T15:26:42.070Z,100824.88
2023-01-07T15:29:22.982Z,100814.88
2023-01-07T15:32:03.379Z,100808.75
2023-01-07T15:34:33.036Z,100804.66
2023-01-07T15:37:05.154Z,100797.75
2023-01-07T15:39:40.665Z,100805.69
2023-01-07T15:42:16.449Z,100795.09
2023-01-07T15:44:49.630Z,100796.53
2023-01-07T15:47:37.946Z,100794.06
2023-01-07T15:50:31.294Z,100793.25
2023-01-07T15:53:01.423Z,100785.09
2023-01-07T15:55:36.890Z,100777.31
2023-01-07T15:58:10.480Z,100770.63
2023-01-07T16:00:39.029Z,100763.47
2023-01-07T16:03:06.862Z,100763.88
2023-01-07T16:05:37.701Z,100752.88
2023-01-07T16:08:05.292Z,100754.09
2023-01-07T16:10:34.989Z,100755.69
2023-01-07T16:13:04.399Z,100749.19
2023-01-07T16:15:33.613Z,100743.47
2023-01-07T16:18:15.536Z,100744.66
2023-01-07T16:20:54.000Z,100751.59
2023-01-07T16:23:25.170Z,100739.16
2023-01-07T16:26:00.651Z,100734.66
2023-01-07T16:28:32.441Z,100731.59
2023-01-07T16:31:00.237Z,100725.06
2023-01-07T16:33:32.263Z,100732.41
2023-01-07T16:36:05.252Z,100734.22
2023-01-07T16:38:36.404Z,100731.97
2023-01-07T16:41:04.129Z,100740.50
2023-01-07T16:43:44.554Z,100730.72
2023-01-07T16:46:26.286Z,100729.69
2023-01-07T16:49:26.569Z,100726.66
2023-01-07T16:52:05.197Z,100722.34
2023-01-07T16:54:37.063Z,100718.25
2023-01-07T16:57:07.000Z,100707.09
2023-01-07T16:59:38.104Z,100702.78
2023-01-07T17:02:26.414Z,100698.88
2023-01-07T17:04:56.581Z,100709.06
2023-01-07T17:07:27.319Z,100703.94
2023-01-07T17:09:57.755Z,100704.59
2023-01-07T17:12:29.736Z,100686.44
2023-01-07T17:14:56.940Z,100683.81
2023-01-07T17:17:30.281Z,100668.31
2023-01-07T17:20:28.635Z,100671.94
2023-01-07T17:22:57.056Z,100672.31
2023-01-07T17:25:28.269Z,100674.13
2023-01-07T17:28:00.833Z,100678.63
2023-01-07T17:30:34.128Z,100677.59
2023-01-07T17:33:02.402Z,100661.34
2023-01-07T17:35:30.625Z,100661.13
2023-01-07T17:37:58.620Z,100669.88
2023-01-07T17:40:25.778Z,100655.63
2023-01-07T17:43:10.999Z,100655.22
2023-01-07T17:45:37.949Z,100646.66
2023-01-07T17:48:13.505Z,100650.72
2023-01-07T17:50:43.005Z,100645.81
2023-01-07T17:53:23.329Z,100648.25
2023-01-07T17:55:50.365Z,100636.63
2023-01-07T17:58:26.965Z,100630.72
2023-01-07T18:00:56.562Z,100628.28
2023-01-07T18:03:24.685Z,100635.16
2023-01-07T18:05:53.188Z,100632.28
2023-01-07T18:08:20.148Z,100635.16
2023-01-07T18:11:07.245Z,100639.63
2023-01-07T18:13:34.141Z,100649.34
2023-01-07T18:16:01.383Z,100646.09
2023-01-07T18:18:28.745Z,100644.06
2023-01-07T18:20:58.107Z,100648.75
2023-01-07T18:23:25.747Z,100645.25
2023-01-07T18:25:52.812Z,100644.84
2023-01-07T18:28:19.792Z,100641.19
2023-01-07T18:30:47.137Z,100638.53
2023-01-07T18:33:14.194Z,100630.22
2023-01-07T18:35:41.072Z,100631.44
2023-01-07T18:38:15.218Z,100627.81
2023-01-07T18:40:43.189Z,100627.19
2023-01-07T18:43:13.684Z,100616.78
2023-01-07T18:45:41.020Z,100625.78
2023-01-07T18:48:09.179Z,100630.69
2023-01-07T18:50:36.561Z,100621.28
2023-01-07T18:53:03.426Z,100626.56
2023-01-07T18:55:31.690Z,100630.84
2023-01-07T18:57:58.676Z,100630.22
2023-01-07T19:00:25.804Z,100635.50
2023-01-07T19:02:53.035Z,100625.31
2023-01-07T19:05:20.116Z,100625.31
2023-01-07T19:07:47.013Z,100621.22
2023-01-07T19:10:13.904Z,100615.78
2023-01-07T19:12:42.182Z,100609.44
2023-01-07T19:15:10.527Z,100609.44
2023-01-07T19:17:37.679Z,100595.63
2023-01-07T19:20:06.267Z,100604.97
2023-01-07T19:22:33.142Z,100598.69
2023-01-07T19:25:00.018Z,100595.03
2023-01-07T19:27:27.001Z,100593.78
2023-01-07T19:29:55.244Z,100591.59
2023-01-07T19:32:22.208Z,100591.59
2023-01-07T19:34:52.186Z,100582.63
2023-01-07T19:37:19.232Z,100579.97
2023-01-07T19:39:46.135Z,100574.31
2023-01-07T19:42:13.037Z,100567.38
2023-01-07T19:44:41.494Z,100567.19
2023-01-07T19:47:13.820Z,100557.41
2023-01-07T19:49:41.754Z,100549.47
2023-01-07T19:52:08.645Z,100546.44
2023-01-07T19:54:35.805Z,100541.53
2023-01-07T19:57:02.809Z,100537.28
2023-01-07T19:59:31.137Z,100527.72
2023-01-07T20:01:58.112Z,100520.59
2023-01-07T20:04:27.242Z,100521.03
2023-01-07T20:06:54.598Z,100506.38
2023-01-07T20:09:21.914Z,100510.06
2023-01-07T20:11:48.931Z,100504.16
2023-01-07T20:14:15.984Z,100501.72
2023-01-07T20:16:43.016Z,100489.91
2023-01-07T20:19:12.239Z,100489.13
2023-01-07T20:21:40.507Z,100485.66
2023-01-07T20:24:08.725Z,100487.47
2023-01-07T20:26:38.053Z,100483.63
2023-01-07T20:29:05.231Z,100481.78
2023-01-07T20:31:32.978Z,100477.72
2023-01-07T20:34:00.262Z,100476.28
2023-01-07T20:36:30.875Z,100459.81
2023-01-07T20:39:05.181Z,100461.84
2023-01-07T20:41:34.578Z,100461.84
2023-01-07T20:44:04.105Z,100466.13
2023-01-07T20:46:34.555Z,100458.19
2023-01-07T20:49:01.819Z,100452.09
2023-01-07T20:51:28.894Z,100459.00
2023-01-07T20:53:55.820Z,100466.09
2023-01-07T20:56:24.449Z,100469.97
2023-01-07T20:58:51.753Z,100483.81
